Oracle, AZ (85623)

03:56 AM MST on April 19, 2015 (GMT -0700)
Oaks | | Change Station
CLOSE
Current Station
Personligvejrstation
Location: Oracle, AZ
Højde: 4550 ft
Vejrstationer i nærheden

Elev 4550 ft 32.61 °N, 110.78 °W | Updated 5 minutes ago

Klart
Klart
51.6 ° F
Føles som 51.6 ° F
N
1.0
Vind Skiftende Vind Vest
Gusts 1.0 mph

I dag
Høj -- | Lav -- ° F
--% Risiko for nedbør
I går
Høj -- | Lav -- ° F
Precip. -- tommer
5:49 AM 6:55 PM
Nymåne, 1% visible
Tryk 29.88 tommer
Sigtbarhed 10.0 mil
Skyer Klart
Dugpunkt 16 ° F
Luftfugtighed 24%
Regnmængde 0.00 tommer
Snedybde Ikke tilgængelig.
UV 0.0 fra 12
Pollen 10.00 fra 12
Luftkvalitet Ikke tilgængelig.
Flu Activity Local Activity
METAR KDMA 190958Z AUTO 14008KT 10SM CLR 13/M07 A2997 RMK AO2 SLP117 T01271067 $

More Conditions Fewer Conditions

Tryk 29.88 tommer
Sigtbarhed 10.0 mil
Skyer Klart
Dugpunkt 16 ° F
Luftfugtighed 24%
Regnmængde 0.00 tommer
Snedybde Ikke tilgængelig.
UV 0.0 fra 12
Pollen 10.00 fra 12
Luftkvalitet Ikke tilgængelig.
Flu Activity Local Activity
METAR KDMA 190958Z AUTO 14008KT 10SM CLR 13/M07 A2997 RMK AO2 SLP117 T01271067 $

More Conditions Fewer Conditions

10-Day Weather Forecast

Almanac

Astronomi

Apr. 19, 2015 Opgang Nedgang
Faktisktidspunkt
Civilttusmørke
Nautisktusmørke
Astronomisktusmørke
Måne
Synligtlys’ længde
Dagens længde
Tomorrow will be .
, % of the Moon is Illuminated

Ekstremer i dag

State Highs State Lows

Community

WunderPhotos

Upload Photos

1,814,759 Billeder uploaded!

WunderBlogs® & News

Nearby

Luftkvalitet

  Luftkvalitet AQ-indeks Forureningskilder
Not available.

Snedybde

Station Depth Højde

Jordskælvsaktivitet

By Distance Mag. Time & Date
Minimum magnitude displayed is 2.5.

Kystnære vandtemperaturer

Sted Temperatur

Stations

Vejrstationer i nærheden

Stationenssted Temp. Vindeffekt Dugpunkt Luftfugtighed Vind Precip. Elev Opdateret Type